Time;durP1;ratioP1;P1;durP2;ratioP2;P2;SDS_P1;SDS_P2;PMS_P1;PMS_P2;Temp;Humidity;BMP_temperature;BMP_pressure;BME280_temperature;BME280_humidity;BME280_pressure;Samples;Min_cycle;Max_cycle;Signal;HPM_P1;HPM_P2
2022/05/31 00:01:40;;;;;;;5.32;3.33;;;11.80;99.90;;;11.81;72.19;100778.50;5206023;28;20478;-75
2022/05/31 00:04:13;;;;;;;5.47;3.13;;;11.70;99.90;;;11.75;72.76;100767.84;5203190;28;20041;-73
2022/05/31 00:06:45;;;;;;;6.03;3.60;;;11.70;99.90;;;11.71;72.78;100772.06;5195425;28;20041;-74
2022/05/31 00:09:19;;;;;;;5.28;3.08;;;11.70;99.90;;;11.70;72.41;100780.75;5191722;28;20049;-74
2022/05/31 00:11:51;;;;;;;4.03;2.75;;;11.60;99.90;;;11.70;72.27;100770.31;5205585;28;20057;-73
2022/05/31 00:14:23;;;;;;;6.32;3.03;;;11.60;99.90;;;11.72;71.91;100772.94;5205398;28;20107;-73
2022/05/31 00:16:56;;;;;;;5.05;3.20;;;11.60;99.90;;;11.72;71.14;100776.44;5205792;28;20403;-75
2022/05/31 00:19:28;;;;;;;5.30;3.00;;;11.60;99.90;;;11.72;70.56;100783.41;5205196;28;20057;-73
2022/05/31 00:22:07;;;;;;;6.00;3.22;;;11.60;99.90;;;11.73;69.69;100782.56;5205816;28;20053;-74
2022/05/31 00:24:41;;;;;;;4.95;2.92;;;11.60;99.90;;;11.73;69.66;100775.59;5205496;28;20057;-74
2022/05/31 00:27:17;;;;;;;5.57;2.75;;;11.60;99.90;;;11.77;69.65;100776.59;5205623;28;20056;-74
2022/05/31 00:29:49;;;;;;;5.35;2.78;;;11.70;99.90;;;11.79;69.51;100777.50;5205685;28;20054;-73
2022/05/31 00:32:27;;;;;;;6.10;3.40;;;11.70;99.90;;;11.79;68.74;100772.28;5205713;28;20490;-73
2022/05/31 00:35:07;;;;;;;8.38;3.40;;;11.70;99.90;;;11.79;68.83;100764.47;5205843;28;20053;-74
2022/05/31 00:37:39;;;;;;;6.72;3.70;;;11.70;99.90;;;11.81;68.61;100768.94;5205296;28;20056;-73
2022/05/31 00:40:16;;;;;;;5.53;3.13;;;11.70;99.90;;;11.80;68.17;100777.59;5205175;28;20057;-72
2022/05/31 00:42:54;;;;;;;4.88;3.30;;;11.70;99.90;;;11.81;68.07;100778.50;5205309;28;20052;-74
2022/05/31 00:45:38;;;;;;;4.63;2.88;;;11.70;99.90;;;11.82;67.97;100777.66;5197663;28;20053;-73
2022/05/31 00:48:16;;;;;;;3.97;2.78;;;11.80;99.90;;;11.86;68.00;100776.88;5205326;28;20053;-73
2022/05/31 00:50:53;;;;;;;6.05;2.80;;;11.70;99.90;;;11.86;68.12;100771.66;5205429;28;20049;-74
2022/05/31 00:53:31;;;;;;;4.43;2.55;;;11.80;99.90;;;11.87;67.90;100770.84;5205562;28;20058;-74
2022/05/31 00:56:10;;;;;;;3.60;2.28;;;11.80;99.90;;;11.87;67.95;100769.13;5206862;28;20502;-74
2022/05/31 00:58:46;;;;;;;4.25;2.83;;;11.80;99.90;;;11.84;67.86;100755.06;5208777;28;20132;-75
2022/05/31 01:01:19;;;;;;;3.80;2.85;;;11.80;99.90;;;11.85;68.08;100754.22;5209344;28;20050;-73
2022/05/31 01:03:52;;;;;;;4.38;2.63;;;11.80;99.90;;;11.85;67.98;100754.22;5209204;28;20058;-73
2022/05/31 01:06:24;;;;;;;4.93;3.03;;;11.80;99.90;;;11.85;68.26;100752.50;5209284;28;20153;-75
2022/05/31 01:08:58;;;;;;;6.40;3.45;;;11.80;99.90;;;11.85;67.87;100754.22;5208898;28;20049;-73
2022/05/31 01:11:38;;;;;;;4.70;2.97;;;11.80;99.90;;;11.85;67.58;100754.22;5209095;28;20384;-73
2022/05/31 01:14:11;;;;;;;3.67;2.40;;;11.80;99.90;;;11.88;68.05;100754.31;5208684;28;20134;-74
2022/05/31 01:17:07;;;;;;;5.32;2.58;;;11.80;99.90;;;11.91;68.34;100760.50;5209256;28;20053;-73
2022/05/31 01:19:59;;;;;;;4.72;2.63;;;11.80;99.90;;;11.93;68.10;100763.16;5208525;28;20156;-75
2022/05/31 01:22:40;;;;;;;5.03;2.67;;;11.80;99.90;;;11.93;67.89;100757.94;5209039;28;20571;-73
2022/05/31 01:25:35;;;;;;;5.32;2.55;;;11.80;99.90;;;11.93;67.87;100763.16;5208957;28;20077;-74
2022/05/31 01:28:17;;;;;;;3.92;2.30;;;11.90;99.90;;;11.91;67.67;100759.63;5208889;28;20045;-75
2022/05/31 01:30:57;;;;;;;3.53;2.30;;;11.80;99.90;;;11.91;68.04;100754.41;5208671;28;20050;-72
2022/05/31 01:33:35;;;;;;;5.70;2.80;;;11.80;99.90;;;11.91;68.15;100755.28;5208828;28;20050;-74
2022/05/31 01:36:13;;;;;;;3.90;2.45;;;11.80;99.90;;;11.92;68.48;100758.78;5208906;28;20049;-74
2022/05/31 01:38:53;;;;;;;4.68;2.88;;;11.80;99.90;;;11.93;68.62;100755.31;5208101;28;20045;-73
2022/05/31 01:41:31;;;;;;;4.03;2.63;;;11.80;99.90;;;11.91;69.05;100751.78;5208750;28;20049;-73
2022/05/31 01:44:09;;;;;;;5.00;3.20;;;11.80;99.90;;;11.88;69.16;100744.75;5208535;28;20060;-74
2022/05/31 01:46:42;;;;;;;5.68;3.42;;;11.80;99.90;;;11.86;69.81;100745.53;5208412;28;20055;-73
2022/05/31 01:49:16;;;;;;;6.47;3.35;;;11.80;99.90;;;11.82;69.82;100743.69;5207885;28;20100;-74
2022/05/31 01:51:49;;;;;;;4.47;3.22;;;11.80;99.90;;;11.83;70.35;100740.25;5208159;28;20065;-74
2022/05/31 01:54:22;;;;;;;5.10;3.17;;;11.80;99.90;;;11.83;70.51;100740.25;5208475;28;20045;-73
2022/05/31 01:57:03;;;;;;;5.45;2.75;;;11.80;99.90;;;11.82;70.47;100738.47;5208001;28;20053;-73
2022/05/31 01:59:39;;;;;;;4.97;2.92;;;11.80;99.90;;;11.83;70.57;100727.19;5208110;28;20060;-72
2022/05/31 02:02:15;;;;;;;4.55;2.90;;;11.80;99.90;;;11.85;70.95;100733.31;5208239;28;20499;-74
2022/05/31 02:04:47;;;;;;;4.25;2.83;;;11.80;99.90;;;11.86;70.85;100730.75;5208196;28;20111;-73
2022/05/31 02:07:23;;;;;;;4.72;2.97;;;11.80;99.90;;;11.87;70.60;100731.66;5206684;28;20103;-74
2022/05/31 02:09:57;;;;;;;4.88;2.97;;;11.80;99.90;;;11.89;71.00;100732.59;5207877;28;20405;-75
2022/05/31 02:12:31;;;;;;;5.47;3.22;;;11.80;99.90;;;11.89;70.45;100725.63;5207708;28;20053;-74
2022/05/31 02:15:04;;;;;;;6.43;3.42;;;11.80;99.90;;;11.89;70.99;100725.63;5208070;28;20053;-74
2022/05/31 02:17:36;;;;;;;5.95;2.88;;;11.80;99.90;;;11.86;70.77;100724.66;5208050;28;20046;-73
2022/05/31 02:20:10;;;;;;;4.35;2.75;;;11.80;99.90;;;11.83;71.00;100722.84;5207769;28;20483;-74
2022/05/31 02:22:42;;;;;;;5.63;3.13;;;11.70;99.90;;;11.83;71.25;100719.34;5207791;28;20132;-73
2022/05/31 02:25:16;;;;;;;5.32;2.95;;;11.70;99.90;;;11.81;71.34;100713.22;5207870;28;20045;-72
2022/05/31 02:27:48;;;;;;;7.07;3.10;;;11.70;99.90;;;11.80;71.66;100714.00;5207487;28;20136;-75
2022/05/31 02:30:21;;;;;;;5.80;2.45;;;11.70;99.90;;;11.80;71.69;100714.00;5207247;28;20056;-73
2022/05/31 02:32:53;;;;;;;5.05;2.90;;;11.70;99.90;;;11.80;71.94;100716.59;5207794;28;20056;-73
2022/05/31 02:35:25;;;;;;;4.55;2.63;;;11.70;99.90;;;11.79;72.06;100712.22;5207690;28;20046;-73
2022/05/31 02:37:58;;;;;;;3.65;2.42;;;11.70;99.90;;;11.80;72.09;100708.75;5207077;28;20052;-73
2022/05/31 02:40:32;;;;;;;5.55;2.78;;;11.70;99.90;;;11.78;71.91;100705.25;5207361;28;20135;-75
2022/05/31 02:43:04;;;;;;;3.65;2.60;;;11.70;99.90;;;11.77;72.03;100703.47;5207704;28;20052;-74
2022/05/31 02:45:36;;;;;;;5.38;2.53;;;11.70;99.90;;;11.74;71.99;100698.19;5207542;28;20501;-76
2022/05/31 02:48:09;;;;;;;4.78;2.92;;;11.60;99.90;;;11.64;72.20;100692.66;5206765;28;20048;-73
2022/05/31 02:50:41;;;;;;;4.03;2.70;;;11.60;99.90;;;11.61;72.29;100687.38;5207285;28;20057;-73
2022/05/31 02:53:13;;;;;;;5.70;2.65;;;11.60;99.90;;;11.61;72.49;100683.88;5207358;28;20077;-75
2022/05/31 02:55:46;;;;;;;4.85;3.03;;;11.60;99.90;;;11.62;72.84;100688.25;5207189;28;20053;-73
2022/05/31 02:58:18;;;;;;;4.93;2.63;;;11.60;99.90;;;11.62;72.94;100688.25;5206348;28;20045;-75
2022/05/31 03:00:50;;;;;;;3.25;2.42;;;11.60;99.90;;;11.60;72.58;100693.41;5206928;28;20049;-75
2022/05/31 03:03:22;;;;;;;3.13;1.95;;;11.60;99.90;;;11.59;72.40;100694.25;5207096;28;20734;-73
2022/05/31 03:05:55;;;;;;;5.22;2.25;;;11.60;99.90;;;11.58;72.99;100691.59;5206997;28;20056;-72
2022/05/31 03:08:27;;;;;;;4.25;2.95;;;11.50;99.90;;;11.55;73.59;100692.41;5206607;28;20394;-73
2022/05/31 03:11:01;;;;;;;4.70;2.10;;;11.50;99.90;;;11.50;74.00;100683.56;5206614;28;20060;-75
2022/05/31 03:13:34;;;;;;;4.22;2.63;;;11.50;99.90;;;11.45;74.54;100679.94;5206787;28;20057;-74
2022/05/31 03:16:08;;;;;;;3.80;2.63;;;11.40;99.90;;;11.39;74.52;100691.06;5206734;28;20077;-75
2022/05/31 03:18:44;;;;;;;6.20;2.50;;;11.30;99.90;;;11.35;74.81;100685.72;5206061;28;20041;-73
2022/05/31 03:21:19;;;;;;;3.38;2.42;;;11.30;99.90;;;11.31;74.82;100686.47;5206678;28;20050;-73
2022/05/31 03:23:58;;;;;;;3.35;2.25;;;11.30;99.90;;;11.29;74.94;100689.03;5206327;28;20057;-74
2022/05/31 03:26:33;;;;;;;3.50;2.10;;;11.20;99.90;;;11.28;75.18;100691.56;5206526;28;20053;-73
2022/05/31 03:29:06;;;;;;;5.28;2.28;;;11.20;99.90;;;11.25;75.30;100681.94;5206283;28;20482;-73
2022/05/31 03:31:39;;;;;;;4.75;2.17;;;11.20;99.90;;;11.21;75.61;100689.63;5206300;28;20414;-75
2022/05/31 03:34:11;;;;;;;3.85;2.33;;;11.10;99.90;;;11.16;76.25;100691.22;5206582;28;20049;-72
2022/05/31 03:36:43;;;;;;;3.90;2.65;;;11.10;99.90;;;11.11;76.70;100691.97;5206077;28;20053;-72
2022/05/31 03:39:15;;;;;;;3.38;2.28;;;11.00;99.90;;;11.07;77.33;100697.91;5205953;28;20056;-73
2022/05/31 03:41:48;;;;;;;4.78;2.50;;;11.00;99.90;;;11.05;77.87;100696.97;5206035;28;20049;-75
2022/05/31 03:44:20;;;;;;;3.90;2.33;;;11.00;99.90;;;11.02;78.50;100693.38;5206138;28;20053;-75
2022/05/31 03:46:52;;;;;;;3.65;2.35;;;11.00;99.90;;;10.98;78.79;100695.03;5206204;28;20041;-75
2022/05/31 03:49:24;;;;;;;3.45;2.58;;;11.00;99.90;;;10.97;79.17;100690.66;5206062;28;20045;-73
2022/05/31 03:51:56;;;;;;;4.70;2.40;;;10.90;99.90;;;10.96;79.32;100688.88;5206011;28;20049;-74
2022/05/31 03:54:29;;;;;;;5.53;2.47;;;10.90;99.90;;;10.95;79.80;100694.03;5205784;28;20053;-73
2022/05/31 03:57:02;;;;;;;5.40;2.55;;;10.90;99.90;;;10.94;79.97;100693.16;5205875;28;20052;-74
2022/05/31 03:59:36;;;;;;;3.90;2.35;;;10.90;99.90;;;10.95;80.30;100697.53;5205663;28;20522;-72
2022/05/31 04:02:09;;;;;;;3.15;2.35;;;10.90;99.90;;;10.95;80.57;100691.41;5206212;28;20387;-73
2022/05/31 04:04:40;;;;;;;3.40;2.33;;;10.90;99.90;;;10.94;80.62;100685.31;5205802;28;20049;-73
2022/05/31 04:07:12;;;;;;;4.07;2.63;;;10.90;99.90;;;10.93;80.67;100682.66;5205768;28;20053;-75
2022/05/31 04:09:44;;;;;;;4.43;2.33;;;10.90;99.90;;;10.91;80.30;100677.41;5205654;28;20049;-73
2022/05/31 04:12:18;;;;;;;4.35;2.67;;;10.90;99.90;;;10.90;80.08;100677.38;5205919;28;20332;-75
2022/05/31 04:14:50;;;;;;;3.13;2.35;;;10.80;99.90;;;10.91;79.83;100668.72;5205842;28;20497;-73
2022/05/31 04:17:22;;;;;;;5.38;2.55;;;10.90;99.90;;;10.91;79.73;100669.59;5205758;28;20402;-74
2022/05/31 04:19:54;;;;;;;4.65;2.47;;;10.90;99.90;;;10.92;79.05;100668.75;5205663;28;20060;-73
2022/05/31 04:22:26;;;;;;;4.20;2.63;;;10.90;99.90;;;10.97;78.80;100674.13;5205955;28;20053;-73
2022/05/31 04:25:01;;;;;;;4.15;2.33;;;10.90;99.90;;;11.03;78.61;100675.19;5205845;28;20072;-74
2022/05/31 04:27:34;;;;;;;3.90;2.53;;;11.00;99.90;;;11.11;78.75;100678.03;5205386;28;20046;-73
2022/05/31 04:30:08;;;;;;;3.17;2.20;;;11.00;99.90;;;11.19;78.64;100680.88;5205434;28;20482;-73
2022/05/31 04:32:40;;;;;;;5.90;2.38;;;11.10;99.90;;;11.26;78.60;100677.59;5205150;28;20155;-73
2022/05/31 04:35:12;;;;;;;4.68;2.10;;;11.20;99.90;;;11.31;78.20;100676.03;5209793;28;20076;-74
2022/05/31 04:40:24;;;;;;;3.60;2.47;;;11.30;99.90;;;11.24;75.29;100664.53;5183763;28;20054;-69
2022/05/31 04:42:57;;;;;;;3.70;2.67;;;11.30;99.90;;;11.25;75.30;100668.00;5197254;28;20057;-68
2022/05/31 04:45:30;;;;;;;4.05;2.55;;;11.30;99.90;;;11.28;75.04;100670.69;5209529;28;20076;-69
2022/05/31 04:48:02;;;;;;;3.78;2.38;;;11.30;99.90;;;11.33;74.51;100669.13;5209541;28;20053;-69
2022/05/31 04:50:35;;;;;;;4.53;2.30;;;11.30;99.90;;;11.40;74.14;100668.47;5209112;28;20417;-69
2022/05/31 04:53:07;;;;;;;2.67;1.83;;;11.40;99.90;;;11.47;74.06;100677.34;5209564;28;20559;-69
2022/05/31 04:55:40;;;;;;;3.83;2.03;;;11.40;99.90;;;11.53;73.16;100675.81;5209568;28;20501;-68
2022/05/31 04:58:13;;;;;;;3.85;1.92;;;11.50;99.90;;;11.54;72.99;100668.84;5209138;28;20072;-69
2022/05/31 05:00:49;;;;;;;3.67;2.15;;;11.50;99.90;;;11.60;72.80;100674.25;5209507;28;20049;-70
2022/05/31 05:03:20;;;;;;;2.25;1.67;;;11.60;99.90;;;11.65;72.65;100678.78;5209137;28;20050;-69
2022/05/31 05:05:53;;;;;;;3.58;1.75;;;11.60;99.90;;;11.72;72.27;100671.13;5209250;28;20133;-69
2022/05/31 05:08:25;;;;;;;3.22;1.75;;;11.70;99.90;;;11.75;72.08;100673.81;5208896;28;20045;-69
2022/05/31 05:10:59;;;;;;;2.78;1.75;;;11.70;99.90;;;11.78;72.14;100671.28;5209462;28;20053;-69
2022/05/31 05:13:33;;;;;;;2.78;1.73;;;11.70;99.90;;;11.81;72.11;100677.53;5209339;28;20049;-68
2022/05/31 05:16:07;;;;;;;3.40;1.83;;;11.80;99.90;;;11.89;72.12;100681.22;5209230;28;20053;-68
2022/05/31 05:18:40;;;;;;;3.47;1.75;;;11.80;99.90;;;11.93;71.89;100680.47;5208914;28;20391;-69
2022/05/31 05:21:14;;;;;;;3.25;2.17;;;11.80;99.90;;;11.98;71.72;100671.88;5208984;28;20097;-69
2022/05/31 05:23:46;;;;;;;3.45;1.80;;;11.90;99.90;;;11.97;71.56;100671.00;5208854;28;20053;-69
2022/05/31 05:26:18;;;;;;;3.25;1.48;;;11.90;99.90;;;12.00;71.67;100675.41;5208941;28;20478;-70
2022/05/31 05:31:42;;;;;;;3.45;1.58;;;12.00;99.90;;;12.06;73.57;100668.63;5208755;28;20061;-68
2022/05/31 05:34:14;;;;;;;4.03;1.95;;;12.00;99.90;;;12.10;73.97;100673.09;5208545;28;20387;-69
2022/05/31 05:36:46;;;;;;;4.13;1.95;;;12.00;99.90;;;12.13;74.88;100664.47;5208779;28;20076;-69
2022/05/31 05:39:18;;;;;;;2.55;1.90;;;12.00;99.90;;;12.16;75.06;100668.03;5208100;28;20053;-69
2022/05/31 05:41:50;;;;;;;2.70;1.98;;;12.10;99.90;;;12.19;74.56;100675.97;5208302;28;20053;-69
2022/05/31 05:44:26;;;;;;;2.47;1.70;;;12.10;99.90;;;12.21;74.86;100674.25;5208660;28;20053;-68
2022/05/31 05:46:58;;;;;;;3.70;2.03;;;12.10;99.90;;;12.26;76.06;100679.63;5208278;28;20480;-68
2022/05/31 05:49:30;;;;;;;6.28;2.35;;;12.10;99.90;;;12.35;76.69;100673.72;5208176;28;20413;-68
2022/05/31 05:52:05;;;;;;;4.10;1.98;;;12.20;99.90;;;12.37;76.99;100680.75;5208508;28;20354;-68
2022/05/31 05:54:37;;;;;;;3.28;1.95;;;12.20;99.90;;;12.40;76.42;100683.47;5208598;28;20056;-69
2022/05/31 05:57:09;;;;;;;3.38;2.13;;;12.30;99.90;;;12.46;76.09;100685.34;5208098;28;20049;-69
2022/05/31 05:59:42;;;;;;;4.90;2.10;;;12.30;99.90;;;12.61;75.59;100683.13;5208237;28;20076;-71
2022/05/31 06:02:20;;;;;;;7.15;2.22;;;12.40;99.90;;;12.83;74.85;100678.38;5208239;28;20049;-72
2022/05/31 06:04:58;;;;;;;6.50;2.25;;;12.60;99.90;;;13.06;73.53;100674.59;5208310;28;20050;-70
2022/05/31 06:07:35;;;;;;;6.72;2.53;;;12.80;99.90;;;13.34;71.90;100672.59;5208500;28;20406;-71
2022/05/31 06:10:12;;;;;;;3.47;1.85;;;13.00;99.90;;;13.86;68.86;100666.72;5208251;28;20049;-71
2022/05/31 06:12:49;;;;;;;3.30;1.92;;;13.40;99.90;;;14.50;65.63;100669.66;5208324;28;20054;-73
2022/05/31 06:15:26;;;;;;;4.88;2.20;;;13.90;99.90;;;14.89;63.18;100670.28;5207887;28;20062;-71
2022/05/31 06:18:02;;;;;;;3.33;2.13;;;14.30;99.90;;;15.23;62.49;100669.91;5207950;28;20387;-71
2022/05/31 06:20:35;;;;;;;4.13;1.98;;;14.60;99.30;;;15.67;60.48;100678.38;5207648;28;20054;-74
2022/05/31 06:23:07;;;;;;;3.63;2.05;;;15.00;98.40;;;16.22;59.16;100684.25;5208165;28;20045;-71
2022/05/31 06:25:39;;;;;;;5.65;2.08;;;15.50;97.70;;;16.85;57.34;100687.47;5208070;28;20046;-70
2022/05/31 06:28:11;;;;;;;6.68;2.13;;;16.00;96.70;;;17.26;53.49;100683.34;5208028;28;20056;-69
2022/05/31 06:30:45;;;;;;;4.70;1.80;;;16.50;93.60;;;17.57;52.06;100676.50;5207949;28;20059;-69
2022/05/31 06:33:17;;;;;;;3.13;1.65;;;16.80;92.20;;;17.68;52.07;100683.59;5207787;28;20049;-69
2022/05/31 06:35:49;;;;;;;2.65;1.63;;;17.00;91.50;;;17.49;51.00;100672.94;5207980;28;20478;-69
2022/05/31 06:38:21;;;;;;;3.20;1.50;;;17.00;90.10;;;17.48;50.25;100676.47;5207562;28;20068;-69
2022/05/31 06:40:53;;;;;;;4.03;1.60;;;17.00;88.00;;;17.52;50.08;100679.97;5207833;28;20478;-70
2022/05/31 06:43:25;;;;;;;3.45;1.35;;;17.00;87.10;;;17.37;50.41;100675.53;5207772;28;20050;-69
2022/05/31 06:45:58;;;;;;;2.90;1.50;;;16.90;86.80;;;17.23;51.06;100671.94;5207669;28;20478;-69
2022/05/31 06:48:30;;;;;;;2.40;1.55;;;16.80;87.20;;;17.15;50.95;100685.06;5207135;28;20054;-70
2022/05/31 06:51:05;;;;;;;2.85;1.45;;;16.70;86.80;;;17.00;51.10;100671.78;5207222;28;20053;-69
2022/05/31 06:56:51;;;;;;;2.92;1.50;;;16.60;87.90;;;17.03;51.97;100667.44;5144211;28;20169;-70
2022/05/31 06:59:23;;;;;;;5.47;1.45;;;16.60;88.30;;;16.93;51.96;100676.13;5199511;28;20059;-69
2022/05/31 07:02:03;;;;;;;1.60;1.50;;;16.50;87.60;;;16.81;52.35;100660.22;5207554;28;20398;-70
2022/05/31 07:04:36;;;;;;;2.08;1.42;;;16.40;88.00;;;16.73;52.89;100672.47;5207113;28;20107;-72
2022/05/31 07:07:08;;;;;;;3.20;1.20;;;16.40;88.60;;;16.55;52.94;100674.03;5206967;28;20049;-69
2022/05/31 07:09:40;;;;;;;2.67;1.23;;;16.30;88.40;;;16.47;53.47;100678.34;5206639;28;20041;-69
2022/05/31 07:12:12;;;;;;;2.97;1.40;;;16.20;89.00;;;16.47;53.86;100686.25;5206627;28;20056;-70
2022/05/31 07:14:44;;;;;;;1.65;1.40;;;16.20;89.90;;;16.54;54.04;100693.31;5206918;28;20071;-69
2022/05/31 07:17:18;;;;;;;1.70;1.20;;;16.20;90.20;;;16.72;54.79;100686.50;5206632;28;20052;-64
2022/05/31 07:19:50;;;;;;;1.98;1.20;;;16.30;91.00;;;16.87;54.17;100681.34;5206223;28;20049;-63
2022/05/31 07:22:22;;;;;;;3.45;2.03;;;16.40;90.70;;;16.97;54.21;100683.19;5206580;28;20049;-68
2022/05/31 07:24:54;;;;;;;3.53;1.17;;;16.50;90.50;;;16.99;54.43;100680.56;5206410;28;20051;-67
2022/05/31 07:27:26;;;;;;;1.75;1.27;;;16.50;90.60;;;16.86;54.25;100695.38;5206544;28;20053;-71
2022/05/31 07:29:58;;;;;;;2.15;1.33;;;16.50;90.40;;;16.65;54.67;100696.06;5206244;28;20050;-69
2022/05/31 07:32:32;;;;;;;1.92;1.20;;;16.30;90.50;;;16.43;54.81;100694.09;5206444;28;20049;-69
2022/05/31 07:35:05;;;;;;;2.80;1.40;;;16.10;90.40;;;16.25;55.34;100689.56;5206279;28;20049;-69
2022/05/31 07:37:37;;;;;;;2.70;1.67;;;16.00;90.70;;;16.08;55.56;100697.25;5206262;28;20049;-70
2022/05/31 07:40:10;;;;;;;1.52;1.25;;;15.80;90.90;;;15.96;56.43;100694.50;5205923;28;20046;-69
2022/05/31 07:42:42;;;;;;;2.40;0.98;;;15.70;91.50;;;15.86;56.44;100690.88;5180420;28;20046;-69
2022/05/31 07:45:15;;;;;;;1.55;1.05;;;15.60;91.40;;;15.79;56.11;100693.44;5182945;28;20046;-70
2022/05/31 07:47:48;;;;;;;2.20;1.25;;;15.50;91.10;;;15.67;56.00;100691.53;5185361;28;20052;-69
2022/05/31 07:50:20;;;;;;;2.30;1.17;;;15.40;91.20;;;15.62;56.48;100686.22;5185392;28;20072;-69
2022/05/31 07:52:52;;;;;;;3.30;2.05;;;15.30;91.60;;;15.61;56.76;100692.28;5184795;28;20053;-70
2022/05/31 07:55:24;;;;;;;2.53;1.20;;;15.30;91.60;;;15.58;56.67;100689.63;5185801;28;20057;-69
2022/05/31 08:00:46;;;;;;;1.33;1.23;;;15.30;92.00;;;15.57;57.56;100687.84;5183215;28;20124;-70
2022/05/31 08:03:20;;;;;;;1.45;1.15;;;15.30;92.30;;;15.60;57.91;100681.78;5185223;28;20065;-70
2022/05/31 08:05:52;;;;;;;1.98;1.00;;;15.30;92.70;;;15.59;57.52;100680.00;5185683;28;20407;-68
2022/05/31 08:08:24;;;;;;;2.45;1.20;;;15.30;92.50;;;15.60;57.31;100677.41;5183255;28;20050;-69
2022/05/31 08:10:56;;;;;;;1.58;1.13;;;15.30;92.40;;;15.63;57.26;100668.69;5165391;28;20076;-69
2022/05/31 08:13:28;;;;;;;1.23;1.13;;;15.30;92.30;;;15.62;56.48;100669.56;5180671;28;20108;-69
2022/05/31 08:16:01;;;;;;;2.50;1.67;;;15.30;92.00;;;15.67;56.16;100673.13;5185554;28;20061;-71
2022/05/31 08:18:35;;;;;;;2.55;1.10;;;15.40;91.90;;;15.74;55.91;100677.59;5184920;28;20046;-70
2022/05/31 08:21:10;;;;;;;1.65;1.15;;;15.40;91.60;;;15.79;55.50;100678.53;5185645;28;20049;-69
2022/05/31 08:23:43;;;;;;;4.25;1.17;;;15.50;91.10;;;15.79;54.76;100675.91;5185434;28;20046;-70
2022/05/31 08:26:15;;;;;;;1.02;0.93;;;15.50;90.70;;;15.80;54.80;100675.03;5184694;28;20648;-69
2022/05/31 08:28:47;;;;;;;1.88;1.05;;;15.50;90.50;;;15.76;55.15;100675.84;5184446;28;20208;-69
2022/05/31 08:31:24;;;;;;;1.27;1.17;;;15.50;90.70;;;15.78;55.86;100670.63;5184856;28;20057;-70
2022/05/31 08:33:57;;;;;;;1.40;1.13;;;15.50;91.40;;;15.78;55.97;100674.16;5185471;28;20053;-70
2022/05/31 08:36:29;;;;;;;2.58;1.23;;;15.50;91.20;;;15.82;56.71;100667.16;5185280;28;20054;-67
2022/05/31 08:39:02;;;;;;;2.67;1.15;;;15.60;92.00;;;15.93;57.23;100671.69;5185055;28;20072;-66
2022/05/31 08:41:42;;;;;;;4.63;1.27;;;15.70;92.40;;;16.09;57.02;100666.59;5185072;28;20058;-64
2022/05/31 08:44:34;;;;;;;2.38;1.27;;;15.90;91.90;;;16.20;56.39;100662.31;5181672;28;20072;-65
2022/05/31 08:47:20;;;;;;;3.97;1.33;;;16.10;91.40;;;16.27;55.68;100666.78;5185258;28;20081;-68
2022/05/31 08:53:11;;;;;;;2.10;1.40;;;16.10;90.60;;;16.18;54.97;100672.84;5182470;28;20514;-67
2022/05/31 08:58:44;;;;;;;2.10;1.50;;;16.00;90.50;;;16.06;56.81;100666.56;5175387;28;20049;-65
2022/05/31 09:01:20;;;;;;;1.63;1.50;;;15.90;91.60;;;16.09;55.98;100670.09;5185109;28;20086;-68
2022/05/31 09:03:57;;;;;;;3.60;1.33;;;15.90;91.00;;;16.13;55.79;100663.13;5184564;28;20132;-68
2022/05/31 09:06:44;;;;;;;2.72;1.42;;;15.90;90.90;;;16.17;55.50;100672.78;5185260;28;20400;-68
2022/05/31 09:09:20;;;;;;;2.40;1.20;;;15.90;90.80;;;16.19;55.28;100673.72;5185060;28;20049;-67
2022/05/31 09:12:03;;;;;;;3.15;1.10;;;15.90;90.70;;;16.25;55.23;100676.41;5184911;28;20050;-68
2022/05/31 09:14:47;;;;;;;2.97;1.40;;;15.90;90.70;;;16.23;55.71;100670.22;5185274;28;20078;-69
2022/05/31 09:17:30;;;;;;;3.78;1.38;;;16.00;90.90;;;16.20;55.41;100675.47;5183702;28;20485;-69
2022/05/31 09:20:07;;;;;;;1.85;1.20;;;15.90;90.70;;;16.15;55.21;100685.06;5188011;28;20050;-69
2022/05/31 09:22:44;;;;;;;4.25;1.30;;;15.90;90.60;;;16.12;56.04;100682.41;5188832;28;20046;-63
2022/05/31 09:25:17;;;;;;;1.95;1.42;;;15.90;91.50;;;16.30;56.18;100682.59;5188662;28;20407;-65
2022/05/31 09:27:51;;;;;;;2.38;1.02;;;16.10;91.30;;;16.37;55.30;100676.53;5188404;28;20061;-64
2022/05/31 09:30:27;;;;;;;1.85;1.15;;;16.20;90.60;;;16.41;55.59;100670.41;5188267;28;20046;-62
2022/05/31 09:33:11;;;;;;;3.17;1.45;;;16.20;90.80;;;16.40;56.82;100670.41;5186568;28;20447;-67
2022/05/31 09:36:03;;;;;;;1.88;1.20;;;16.20;91.70;;;16.31;57.16;100673.84;5187654;28;20054;-68
2022/05/31 09:39:10;;;;;;;1.48;1.13;;;16.20;91.50;;;16.17;58.73;100662.28;5174442;28;20049;-66
2022/05/31 09:41:50;;;;;;;3.05;1.50;;;16.10;92.70;;;16.45;60.43;100660.81;5182553;28;20057;-61
2022/05/31 09:44:28;;;;;;;3.50;1.50;;;16.20;94.10;;;16.87;60.36;100648.88;5188447;28;20398;-61
2022/05/31 09:47:10;;;;;;;1.67;1.23;;;16.50;94.30;;;17.25;60.06;100649.09;5188153;28;20050;-60
2022/05/31 09:49:46;;;;;;;2.55;1.52;;;16.80;94.30;;;17.48;59.28;100655.38;5188087;28;20136;-63
2022/05/31 09:52:30;;;;;;;2.60;1.27;;;17.10;94.00;;;17.72;58.04;100656.38;5188055;28;20140;-64
2022/05/31 09:58:22;;;;;;;2.20;1.20;;;17.40;92.60;;;18.00;56.76;100666.16;5187868;28;20089;-62
2022/05/31 10:01:04;;;;;;;3.55;1.20;;;17.60;92.50;;;17.98;54.81;100662.59;5188029;28;20136;-61
2022/05/31 10:03:40;;;;;;;2.05;1.40;;;17.60;91.10;;;17.79;54.73;100660.78;5188143;28;20062;-71
2022/05/31 10:06:18;;;;;;;2.28;1.33;;;17.50;90.70;;;17.76;55.08;100655.53;5187840;28;20056;-67
2022/05/31 10:08:52;;;;;;;1.35;1.20;;;17.40;90.90;;;17.86;54.80;100646.75;5187361;28;20050;-68
2022/05/31 10:11:30;;;;;;;2.13;1.20;;;17.50;90.90;;;17.94;54.33;100645.03;5187623;28;20108;-68
2022/05/31 10:14:06;;;;;;;1.88;0.95;;;17.50;90.60;;;17.96;53.77;100638.00;5187603;28;20100;-68
2022/05/31 10:16:38;;;;;;;2.22;1.33;;;17.50;90.30;;;18.00;54.27;100639.78;5186111;28;20080;-62
2022/05/31 10:19:26;;;;;;;2.30;1.30;;;17.50;90.50;;;18.55;55.58;100638.94;5187327;28;20041;-62
2022/05/31 10:22:15;;;;;;;;;;;17.80;91.90;;;19.14;54.33;100630.06;5188263;28;20050;-62
2022/05/31 10:24:48;;;;;;;4.40;1.35;;;18.20;91.60;;;19.56;52.06;100634.34;5172439;28;19921;-64
2022/05/31 10:27:27;;;;;;;1.67;1.20;;;18.70;90.20;;;19.77;50.99;100628.97;5183798;28;20046;-64
2022/05/31 10:30:03;;;;;;;1.35;0.98;;;18.90;88.60;;;19.97;50.57;100638.56;5176597;28;20141;-61
2022/05/31 10:32:44;;;;;;;2.70;1.30;;;19.10;87.60;;;20.15;50.15;100641.09;5175783;28;20057;-62
2022/05/31 10:35:21;;;;;;;2.22;1.30;;;19.30;86.60;;;20.33;49.79;100635.63;5170330;28;20054;-62
2022/05/31 10:38:01;;;;;;;1.83;1.23;;;19.50;86.00;;;20.35;48.97;100632.13;5168851;28;20058;-63
2022/05/31 10:40:43;;;;;;;1.95;1.25;;;19.60;83.90;;;20.39;47.84;100628.53;5196690;23;20053;-89
2022/05/31 10:43:39;;;;;;;3.30;1.20;;;19.70;82.00;;;20.48;47.58;100623.22;5173502;28;20042;-87
2022/05/31 10:46:15;;;;;;;1.88;1.40;;;19.80;81.20;;;20.51;47.62;100625.84;5168238;28;20050;-86
2022/05/31 10:48:50;;;;;;;1.27;1.15;;;19.80;81.00;;;20.49;47.88;100617.03;5171543;28;20055;-86
2022/05/31 10:51:38;;;;;;;1.45;1.20;;;19.80;81.20;;;20.50;48.52;100618.78;5179255;28;20064;-87
2022/05/31 10:54:32;;;;;;;1.65;1.20;;;19.80;81.90;;;20.42;48.42;100620.59;5199465;28;20082;-86
2022/05/31 10:57:21;;;;;;;1.55;1.15;;;19.70;81.80;;;20.26;49.08;100615.41;5196672;28;20046;-88
2022/05/31 11:00:08;;;;;;;3.55;1.23;;;19.60;82.20;;;20.15;50.13;100626.94;5197340;28;20085;-87
2022/05/31 11:03:10;;;;;;;1.40;1.27;;;19.50;83.30;;;20.06;50.73;100620.84;5199606;28;20053;-87
2022/05/31 11:06:07;;;;;;;2.53;1.20;;;19.40;84.20;;;19.92;50.34;100627.13;5199864;28;20060;-84
2022/05/31 11:12:07;;;;;;;1.30;0.93;;;19.30;83.10;;;19.56;50.93;100607.91;5192041;28;20060;-87